sensor_id;sensor_type;location;lat;lon;timestamp;P1;P2;P0
31330;PMS5003;34067;39.548;-76.088;2023-03-01T00:00:23;15;13;
31330;PMS5003;34067;39.548;-76.088;2023-03-01T00:02:52;13;13;
31330;PMS5003;34067;39.548;-76.088;2023-03-01T00:05:20;15;15;
31330;PMS5003;34067;39.548;-76.088;2023-03-01T00:07:48;16;10;
31330;PMS5003;34067;39.548;-76.088;2023-03-01T00:10:19;11;9;
31330;PMS5003;34067;39.548;-76.088;2023-03-01T00:12:47;14;13;
31330;PMS5003;34067;39.548;-76.088;2023-03-01T00:15:15;15;15;
31330;PMS5003;34067;39.548;-76.088;2023-03-01T00:17:43;15;12;
31330;PMS5003;34067;39.548;-76.088;2023-03-01T00:20:12;14;13;
31330;PMS5003;34067;39.548;-76.088;2023-03-01T00:22:40;12;10;
31330;PMS5003;34067;39.548;-76.088;2023-03-01T00:25:09;14;12;
31330;PMS5003;34067;39.548;-76.088;2023-03-01T00:27:37;10;9;
31330;PMS5003;34067;39.548;-76.088;2023-03-01T00:30:05;12;12;
31330;PMS5003;34067;39.548;-76.088;2023-03-01T00:32:34;13;10;
31330;PMS5003;34067;39.548;-76.088;2023-03-01T00:35:03;12;10;
31330;PMS5003;34067;39.548;-76.088;2023-03-01T00:37:30;16;12;
31330;PMS5003;34067;39.548;-76.088;2023-03-01T00:39:59;10;10;
31330;PMS5003;34067;39.548;-76.088;2023-03-01T00:42:27;14;12;
31330;PMS5003;34067;39.548;-76.088;2023-03-01T00:44:55;9;9;
31330;PMS5003;34067;39.548;-76.088;2023-03-01T00:47:23;14;13;
31330;PMS5003;34067;39.548;-76.088;2023-03-01T00:49:52;16;14;
31330;PMS5003;34067;39.548;-76.088;2023-03-01T00:52:20;12;12;
31330;PMS5003;34067;39.548;-76.088;2023-03-01T00:54:48;9;9;
31330;PMS5003;34067;39.548;-76.088;2023-03-01T00:57:19;14;12;
31330;PMS5003;34067;39.548;-76.088;2023-03-01T00:59:48;13;13;
31330;PMS5003;34067;39.548;-76.088;2023-03-01T01:02:16;14;13;
31330;PMS5003;34067;39.548;-76.088;2023-03-01T01:04:46;13;12;
31330;PMS5003;34067;39.548;-76.088;2023-03-01T01:07:15;13;13;
31330;PMS5003;34067;39.548;-76.088;2023-03-01T01:09:43;12;10;
31330;PMS5003;34067;39.548;-76.088;2023-03-01T01:12:10;13;10;
31330;PMS5003;34067;39.548;-76.088;2023-03-01T01:14:39;15;12;
31330;PMS5003;34067;39.548;-76.088;2023-03-01T01:17:07;10;10;
31330;PMS5003;34067;39.548;-76.088;2023-03-01T01:19:35;17;15;
31330;PMS5003;34067;39.548;-76.088;2023-03-01T01:22:03;14;12;
31330;PMS5003;34067;39.548;-76.088;2023-03-01T01:24:32;17;15;
31330;PMS5003;34067;39.548;-76.088;2023-03-01T01:27:01;15;13;
31330;PMS5003;34067;39.548;-76.088;2023-03-01T01:29:28;14;13;
31330;PMS5003;34067;39.548;-76.088;2023-03-01T01:31:57;14;13;
31330;PMS5003;34067;39.548;-76.088;2023-03-01T01:34:25;17;16;
31330;PMS5003;34067;39.548;-76.088;2023-03-01T01:36:53;12;12;
31330;PMS5003;34067;39.548;-76.088;2023-03-01T01:39:22;15;12;
31330;PMS5003;34067;39.548;-76.088;2023-03-01T01:41:50;15;14;
31330;PMS5003;34067;39.548;-76.088;2023-03-01T01:44:19;12;11;
31330;PMS5003;34067;39.548;-76.088;2023-03-01T01:46:49;14;12;
31330;PMS5003;34067;39.548;-76.088;2023-03-01T01:49:25;14;13;
31330;PMS5003;34067;39.548;-76.088;2023-03-01T01:52:02;17;14;
31330;PMS5003;34067;39.548;-76.088;2023-03-01T01:54:38;15;14;
31330;PMS5003;34067;39.548;-76.088;2023-03-01T01:57:13;17;13;
31330;PMS5003;34067;39.548;-76.088;2023-03-01T01:59:46;18;17;
31330;PMS5003;34067;39.548;-76.088;2023-03-01T02:02:20;18;16;
31330;PMS5003;34067;39.548;-76.088;2023-03-01T02:04:49;16;15;
31330;PMS5003;34067;39.548;-76.088;2023-03-01T02:07:26;16;14;
31330;PMS5003;34067;39.548;-76.088;2023-03-01T02:09:55;15;14;
31330;PMS5003;34067;39.548;-76.088;2023-03-01T02:12:24;16;14;
31330;PMS5003;34067;39.548;-76.088;2023-03-01T02:14:53;16;15;
31330;PMS5003;34067;39.548;-76.088;2023-03-01T02:17:21;17;16;
31330;PMS5003;34067;39.548;-76.088;2023-03-01T02:19:54;16;15;
31330;PMS5003;34067;39.548;-76.088;2023-03-01T02:22:34;15;14;
31330;PMS5003;34067;39.548;-76.088;2023-03-01T02:25:07;20;17;
31330;PMS5003;34067;39.548;-76.088;2023-03-01T02:27:45;15;15;
31330;PMS5003;34067;39.548;-76.088;2023-03-01T02:30:21;36;36;
31330;PMS5003;34067;39.548;-76.088;2023-03-01T02:32:51;33;33;
31330;PMS5003;34067;39.548;-76.088;2023-03-01T02:35:22;23;21;
31330;PMS5003;34067;39.548;-76.088;2023-03-01T02:37:51;34;32;
31330;PMS5003;34067;39.548;-76.088;2023-03-01T02:40:18;30;23;
31330;PMS5003;34067;39.548;-76.088;2023-03-01T02:42:48;24;22;
31330;PMS5003;34067;39.548;-76.088;2023-03-01T02:45:20;18;16;
31330;PMS5003;34067;39.548;-76.088;2023-03-01T02:47:48;20;20;
31330;PMS5003;34067;39.548;-76.088;2023-03-01T02:50:22;42;41;
31330;PMS5003;34067;39.548;-76.088;2023-03-01T02:53:06;29;27;
31330;PMS5003;34067;39.548;-76.088;2023-03-01T02:55:37;56;56;
31330;PMS5003;34067;39.548;-76.088;2023-03-01T02:58:06;36;34;
31330;PMS5003;34067;39.548;-76.088;2023-03-01T03:00:36;20;20;
31330;PMS5003;34067;39.548;-76.088;2023-03-01T03:03:07;36;32;
31330;PMS5003;34067;39.548;-76.088;2023-03-01T03:05:35;31;29;
31330;PMS5003;34067;39.548;-76.088;2023-03-01T03:08:03;99;96;
31330;PMS5003;34067;39.548;-76.088;2023-03-01T03:10:32;35;32;
31330;PMS5003;34067;39.548;-76.088;2023-03-01T03:13:02;44;43;
31330;PMS5003;34067;39.548;-76.088;2023-03-01T03:15:32;27;26;
31330;PMS5003;34067;39.548;-76.088;2023-03-01T03:18:02;47;47;
31330;PMS5003;34067;39.548;-76.088;2023-03-01T03:20:32;27;26;
31330;PMS5003;34067;39.548;-76.088;2023-03-01T03:23:00;34;31;
31330;PMS5003;34067;39.548;-76.088;2023-03-01T03:25:29;34;33;
31330;PMS5003;34067;39.548;-76.088;2023-03-01T03:27:58;41;39;
31330;PMS5003;34067;39.548;-76.088;2023-03-01T03:30:27;49;49;
31330;PMS5003;34067;39.548;-76.088;2023-03-01T03:32:57;53;53;
31330;PMS5003;34067;39.548;-76.088;2023-03-01T03:35:27;35;32;
31330;PMS5003;34067;39.548;-76.088;2023-03-01T03:37:58;49;45;
31330;PMS5003;34067;39.548;-76.088;2023-03-01T03:40:27;41;38;
31330;PMS5003;34067;39.548;-76.088;2023-03-01T03:42:58;48;48;
31330;PMS5003;34067;39.548;-76.088;2023-03-01T03:45:26;38;36;
31330;PMS5003;34067;39.548;-76.088;2023-03-01T03:47:55;45;45;
31330;PMS5003;34067;39.548;-76.088;2023-03-01T03:50:23;45;44;
31330;PMS5003;34067;39.548;-76.088;2023-03-01T03:52:51;45;42;
31330;PMS5003;34067;39.548;-76.088;2023-03-01T03:55:19;51;44;
31330;PMS5003;34067;39.548;-76.088;2023-03-01T03:57:47;58;56;
31330;PMS5003;34067;39.548;-76.088;2023-03-01T04:00:17;44;42;
31330;PMS5003;34067;39.548;-76.088;2023-03-01T04:02:47;64;60;
31330;PMS5003;34067;39.548;-76.088;2023-03-01T04:05:17;61;60;
31330;PMS5003;34067;39.548;-76.088;2023-03-01T04:07:45;60;59;
31330;PMS5003;34067;39.548;-76.088;2023-03-01T04:10:15;59;57;
31330;PMS5003;34067;39.548;-76.088;2023-03-01T04:12:44;44;42;
31330;PMS5003;34067;39.548;-76.088;2023-03-01T04:15:12;50;50;
31330;PMS5003;34067;39.548;-76.088;2023-03-01T04:17:40;46;44;
31330;PMS5003;34067;39.548;-76.088;2023-03-01T04:20:09;59;58;
31330;PMS5003;34067;39.548;-76.088;2023-03-01T04:22:39;49;48;
31330;PMS5003;34067;39.548;-76.088;2023-03-01T04:25:07;37;35;
31330;PMS5003;34067;39.548;-76.088;2023-03-01T04:27:36;42;41;
31330;PMS5003;34067;39.548;-76.088;2023-03-01T04:30:05;35;33;
31330;PMS5003;34067;39.548;-76.088;2023-03-01T04:32:34;61;58;
31330;PMS5003;34067;39.548;-76.088;2023-03-01T04:35:03;35;34;
31330;PMS5003;34067;39.548;-76.088;2023-03-01T04:37:31;41;40;
31330;PMS5003;34067;39.548;-76.088;2023-03-01T04:40:00;55;53;
31330;PMS5003;34067;39.548;-76.088;2023-03-01T04:42:29;57;55;
31330;PMS5003;34067;39.548;-76.088;2023-03-01T04:44:57;132;128;
31330;PMS5003;34067;39.548;-76.088;2023-03-01T04:47:25;150;149;
31330;PMS5003;34067;39.548;-76.088;2023-03-01T04:49:53;127;127;
31330;PMS5003;34067;39.548;-76.088;2023-03-01T04:52:20;120;118;
31330;PMS5003;34067;39.548;-76.088;2023-03-01T04:54:49;73;73;
31330;PMS5003;34067;39.548;-76.088;2023-03-01T04:57:18;63;62;
31330;PMS5003;34067;39.548;-76.088;2023-03-01T04:59:46;40;39;
31330;PMS5003;34067;39.548;-76.088;2023-03-01T05:02:14;36;32;
31330;PMS5003;34067;39.548;-76.088;2023-03-01T05:04:41;46;45;
31330;PMS5003;34067;39.548;-76.088;2023-03-01T05:07:09;48;45;
31330;PMS5003;34067;39.548;-76.088;2023-03-01T05:09:37;65;63;
31330;PMS5003;34067;39.548;-76.088;2023-03-01T05:12:05;51;50;
31330;PMS5003;34067;39.548;-76.088;2023-03-01T05:14:33;62;58;
31330;PMS5003;34067;39.548;-76.088;2023-03-01T05:17:02;53;48;
31330;PMS5003;34067;39.548;-76.088;2023-03-01T05:19:30;20;20;
31330;PMS5003;34067;39.548;-76.088;2023-03-01T05:21:59;20;19;
31330;PMS5003;34067;39.548;-76.088;2023-03-01T05:24:27;27;23;
31330;PMS5003;34067;39.548;-76.088;2023-03-01T05:26:56;25;23;
31330;PMS5003;34067;39.548;-76.088;2023-03-01T05:29:26;26;22;
31330;PMS5003;34067;39.548;-76.088;2023-03-01T05:31:55;25;24;
31330;PMS5003;34067;39.548;-76.088;2023-03-01T05:34:25;26;23;
31330;PMS5003;34067;39.548;-76.088;2023-03-01T05:36:55;28;25;
31330;PMS5003;34067;39.548;-76.088;2023-03-01T05:39:23;23;22;
31330;PMS5003;34067;39.548;-76.088;2023-03-01T05:41:52;24;22;
31330;PMS5003;34067;39.548;-76.088;2023-03-01T05:44:22;23;21;
31330;PMS5003;34067;39.548;-76.088;2023-03-01T05:46:51;29;26;
31330;PMS5003;34067;39.548;-76.088;2023-03-01T05:49:19;27;24;
31330;PMS5003;34067;39.548;-76.088;2023-03-01T05:51:48;20;17;
31330;PMS5003;34067;39.548;-76.088;2023-03-01T05:54:19;27;24;
31330;PMS5003;34067;39.548;-76.088;2023-03-01T05:56:48;25;20;
31330;PMS5003;34067;39.548;-76.088;2023-03-01T05:59:16;27;25;
31330;PMS5003;34067;39.548;-76.088;2023-03-01T06:03:10;27;23;
31330;PMS5003;34067;39.548;-76.088;2023-03-01T06:05:39;24;20;
31330;PMS5003;34067;39.548;-76.088;2023-03-01T06:08:09;28;24;
31330;PMS5003;34067;39.548;-76.088;2023-03-01T06:10:37;24;23;
31330;PMS5003;34067;39.548;-76.088;2023-03-01T06:13:05;27;25;
31330;PMS5003;34067;39.548;-76.088;2023-03-01T06:15:33;30;26;
31330;PMS5003;34067;39.548;-76.088;2023-03-01T06:18:01;33;31;
31330;PMS5003;34067;39.548;-76.088;2023-03-01T06:20:29;25;24;
31330;PMS5003;34067;39.548;-76.088;2023-03-01T06:22:57;31;27;
31330;PMS5003;34067;39.548;-76.088;2023-03-01T06:25:26;30;27;
31330;PMS5003;34067;39.548;-76.088;2023-03-01T06:27:54;24;20;
31330;PMS5003;34067;39.548;-76.088;2023-03-01T06:30:23;32;29;
31330;PMS5003;34067;39.548;-76.088;2023-03-01T06:32:52;25;24;
31330;PMS5003;34067;39.548;-76.088;2023-03-01T06:35:20;30;26;
31330;PMS5003;34067;39.548;-76.088;2023-03-01T06:37:48;33;32;
31330;PMS5003;34067;39.548;-76.088;2023-03-01T06:40:16;26;25;
31330;PMS5003;34067;39.548;-76.088;2023-03-01T06:42:47;27;24;
31330;PMS5003;34067;39.548;-76.088;2023-03-01T06:45:18;22;21;
31330;PMS5003;34067;39.548;-76.088;2023-03-01T06:47:47;30;28;
31330;PMS5003;34067;39.548;-76.088;2023-03-01T06:50:15;27;24;
31330;PMS5003;34067;39.548;-76.088;2023-03-01T06:52:45;34;29;
31330;PMS5003;34067;39.548;-76.088;2023-03-01T06:55:13;34;27;
31330;PMS5003;34067;39.548;-76.088;2023-03-01T06:57:41;36;25;
31330;PMS5003;34067;39.548;-76.088;2023-03-01T07:00:10;41;35;
31330;PMS5003;34067;39.548;-76.088;2023-03-01T07:02:39;34;30;
31330;PMS5003;34067;39.548;-76.088;2023-03-01T07:05:07;47;34;
31330;PMS5003;34067;39.548;-76.088;2023-03-01T07:07:35;34;28;
31330;PMS5003;34067;39.548;-76.088;2023-03-01T07:10:03;37;34;
31330;PMS5003;34067;39.548;-76.088;2023-03-01T07:12:32;23;22;
31330;PMS5003;34067;39.548;-76.088;2023-03-01T07:15:00;31;29;
31330;PMS5003;34067;39.548;-76.088;2023-03-01T07:17:27;29;25;
31330;PMS5003;34067;39.548;-76.088;2023-03-01T07:19:55;23;22;
31330;PMS5003;34067;39.548;-76.088;2023-03-01T07:22:23;31;29;
31330;PMS5003;34067;39.548;-76.088;2023-03-01T07:24:51;25;21;
31330;PMS5003;34067;39.548;-76.088;2023-03-01T07:27:19;22;22;
31330;PMS5003;34067;39.548;-76.088;2023-03-01T07:29:48;36;30;
31330;PMS5003;34067;39.548;-76.088;2023-03-01T07:32:16;42;35;
31330;PMS5003;34067;39.548;-76.088;2023-03-01T07:34:44;38;29;
31330;PMS5003;34067;39.548;-76.088;2023-03-01T07:37:13;37;33;
31330;PMS5003;34067;39.548;-76.088;2023-03-01T07:39:41;37;35;
31330;PMS5003;34067;39.548;-76.088;2023-03-01T07:42:09;34;27;
31330;PMS5003;34067;39.548;-76.088;2023-03-01T07:44:37;29;25;
31330;PMS5003;34067;39.548;-76.088;2023-03-01T07:47:05;35;30;
31330;PMS5003;34067;39.548;-76.088;2023-03-01T07:49:33;30;29;
31330;PMS5003;34067;39.548;-76.088;2023-03-01T07:52:01;49;45;
31330;PMS5003;34067;39.548;-76.088;2023-03-01T07:54:29;46;40;
31330;PMS5003;34067;39.548;-76.088;2023-03-01T07:56:57;38;35;
31330;PMS5003;34067;39.548;-76.088;2023-03-01T07:59:26;34;31;
31330;PMS5003;34067;39.548;-76.088;2023-03-01T08:01:54;33;30;
31330;PMS5003;34067;39.548;-76.088;2023-03-01T08:04:23;44;43;
31330;PMS5003;34067;39.548;-76.088;2023-03-01T08:06:52;37;35;
31330;PMS5003;34067;39.548;-76.088;2023-03-01T08:09:20;38;32;
31330;PMS5003;34067;39.548;-76.088;2023-03-01T08:11:49;30;30;
31330;PMS5003;34067;39.548;-76.088;2023-03-01T08:14:16;35;29;
31330;PMS5003;34067;39.548;-76.088;2023-03-01T08:16:44;32;29;
31330;PMS5003;34067;39.548;-76.088;2023-03-01T08:19:16;36;34;
31330;PMS5003;34067;39.548;-76.088;2023-03-01T08:21:44;38;35;
31330;PMS5003;34067;39.548;-76.088;2023-03-01T08:24:12;36;33;
31330;PMS5003;34067;39.548;-76.088;2023-03-01T08:26:40;60;56;
31330;PMS5003;34067;39.548;-76.088;2023-03-01T08:29:08;35;33;
31330;PMS5003;34067;39.548;-76.088;2023-03-01T08:31:37;31;30;
31330;PMS5003;34067;39.548;-76.088;2023-03-01T08:34:06;34;28;
31330;PMS5003;34067;39.548;-76.088;2023-03-01T08:36:37;23;22;
31330;PMS5003;34067;39.548;-76.088;2023-03-01T08:39:06;28;27;
31330;PMS5003;34067;39.548;-76.088;2023-03-01T08:41:37;19;18;
31330;PMS5003;34067;39.548;-76.088;2023-03-01T08:44:05;26;25;
31330;PMS5003;34067;39.548;-76.088;2023-03-01T08:46:34;110;109;
31330;PMS5003;34067;39.548;-76.088;2023-03-01T08:49:04;71;70;
31330;PMS5003;34067;39.548;-76.088;2023-03-01T08:51:32;47;47;
31330;PMS5003;34067;39.548;-76.088;2023-03-01T08:54:00;13;12;
31330;PMS5003;34067;39.548;-76.088;2023-03-01T08:56:28;39;38;
31330;PMS5003;34067;39.548;-76.088;2023-03-01T08:58:56;24;23;
31330;PMS5003;34067;39.548;-76.088;2023-03-01T08:59:13;24;23;
31330;PMS5003;34067;39.548;-76.088;2023-03-01T09:01:42;25;25;
31330;PMS5003;34067;39.548;-76.088;2023-03-01T09:04:10;19;17;
31330;PMS5003;34067;39.548;-76.088;2023-03-01T09:06:39;26;26;
31330;PMS5003;34067;39.548;-76.088;2023-03-01T09:09:06;22;20;
31330;PMS5003;34067;39.548;-76.088;2023-03-01T09:11:41;27;27;
31330;PMS5003;34067;39.548;-76.088;2023-03-01T09:14:10;17;17;
31330;PMS5003;34067;39.548;-76.088;2023-03-01T09:16:38;17;17;
31330;PMS5003;34067;39.548;-76.088;2023-03-01T09:19:06;20;18;
31330;PMS5003;34067;39.548;-76.088;2023-03-01T09:21:33;20;20;
31330;PMS5003;34067;39.548;-76.088;2023-03-01T09:24:02;9;9;
31330;PMS5003;34067;39.548;-76.088;2023-03-01T09:26:30;16;15;
31330;PMS5003;34067;39.548;-76.088;2023-03-01T09:28:58;10;9;
31330;PMS5003;34067;39.548;-76.088;2023-03-01T09:31:26;15;13;
31330;PMS5003;34067;39.548;-76.088;2023-03-01T09:33:54;21;21;
31330;PMS5003;34067;39.548;-76.088;2023-03-01T09:36:22;25;25;
31330;PMS5003;34067;39.548;-76.088;2023-03-01T09:38:51;8;8;
31330;PMS5003;34067;39.548;-76.088;2023-03-01T09:41:25;9;8;
31330;PMS5003;34067;39.548;-76.088;2023-03-01T09:44:04;9;9;
31330;PMS5003;34067;39.548;-76.088;2023-03-01T09:46:44;9;9;
31330;PMS5003;34067;39.548;-76.088;2023-03-01T09:49:14;4;4;
31330;PMS5003;34067;39.548;-76.088;2023-03-01T09:51:47;8;8;
31330;PMS5003;34067;39.548;-76.088;2023-03-01T09:54:22;9;8;
31330;PMS5003;34067;39.548;-76.088;2023-03-01T09:56:56;7;5;
31330;PMS5003;34067;39.548;-76.088;2023-03-01T09:59:36;8;7;
31330;PMS5003;34067;39.548;-76.088;2023-03-01T10:02:23;8;8;
31330;PMS5003;34067;39.548;-76.088;2023-03-01T10:04:57;9;9;
31330;PMS5003;34067;39.548;-76.088;2023-03-01T10:07:41;12;12;
31330;PMS5003;34067;39.548;-76.088;2023-03-01T10:10:20;7;7;
31330;PMS5003;34067;39.548;-76.088;2023-03-01T10:12:55;9;8;
31330;PMS5003;34067;39.548;-76.088;2023-03-01T10:15:28;7;7;
31330;PMS5003;34067;39.548;-76.088;2023-03-01T10:18:02;7;7;
31330;PMS5003;34067;39.548;-76.088;2023-03-01T10:20:39;11;10;
31330;PMS5003;34067;39.548;-76.088;2023-03-01T10:23:14;8;8;
31330;PMS5003;34067;39.548;-76.088;2023-03-01T10:25:46;9;9;
31330;PMS5003;34067;39.548;-76.088;2023-03-01T10:28:25;12;10;
31330;PMS5003;34067;39.548;-76.088;2023-03-01T10:30:57;10;10;
31330;PMS5003;34067;39.548;-76.088;2023-03-01T10:33:27;9;8;
31330;PMS5003;34067;39.548;-76.088;2023-03-01T10:35:58;8;8;
31330;PMS5003;34067;39.548;-76.088;2023-03-01T10:38:26;8;8;
31330;PMS5003;34067;39.548;-76.088;2023-03-01T10:40:59;9;9;
31330;PMS5003;34067;39.548;-76.088;2023-03-01T10:43:32;9;9;
31330;PMS5003;34067;39.548;-76.088;2023-03-01T10:46:22;8;8;
31330;PMS5003;34067;39.548;-76.088;2023-03-01T10:49:12;11;9;
31330;PMS5003;34067;39.548;-76.088;2023-03-01T10:51:43;10;9;
31330;PMS5003;34067;39.548;-76.088;2023-03-01T10:54:16;11;9;
31330;PMS5003;34067;39.548;-76.088;2023-03-01T10:56:47;9;8;
31330;PMS5003;34067;39.548;-76.088;2023-03-01T10:59:21;14;10;
31330;PMS5003;34067;39.548;-76.088;2023-03-01T11:02:21;9;9;
31330;PMS5003;34067;39.548;-76.088;2023-03-01T11:04:57;11;10;
31330;PMS5003;34067;39.548;-76.088;2023-03-01T11:07:28;10;10;
31330;PMS5003;34067;39.548;-76.088;2023-03-01T11:09:55;9;9;
31330;PMS5003;34067;39.548;-76.088;2023-03-01T11:12:24;15;11;
31330;PMS5003;34067;39.548;-76.088;2023-03-01T11:14:53;10;9;
31330;PMS5003;34067;39.548;-76.088;2023-03-01T11:17:24;11;11;
31330;PMS5003;34067;39.548;-76.088;2023-03-01T11:20:02;8;8;
31330;PMS5003;34067;39.548;-76.088;2023-03-01T11:22:43;9;8;
31330;PMS5003;34067;39.548;-76.088;2023-03-01T11:25:16;8;8;
31330;PMS5003;34067;39.548;-76.088;2023-03-01T11:27:47;8;8;
31330;PMS5003;34067;39.548;-76.088;2023-03-01T11:30:18;10;10;
31330;PMS5003;34067;39.548;-76.088;2023-03-01T11:32:52;9;8;
31330;PMS5003;34067;39.548;-76.088;2023-03-01T11:35:30;12;9;
31330;PMS5003;34067;39.548;-76.088;2023-03-01T11:38:02;13;11;
31330;PMS5003;34067;39.548;-76.088;2023-03-01T11:40:41;11;11;
31330;PMS5003;34067;39.548;-76.088;2023-03-01T11:43:16;13;10;
31330;PMS5003;34067;39.548;-76.088;2023-03-01T11:45:56;13;13;
31330;PMS5003;34067;39.548;-76.088;2023-03-01T11:48:58;15;14;
31330;PMS5003;34067;39.548;-76.088;2023-03-01T11:51:40;11;11;
31330;PMS5003;34067;39.548;-76.088;2023-03-01T11:54:18;15;15;
31330;PMS5003;34067;39.548;-76.088;2023-03-01T11:57:00;13;12;
31330;PMS5003;34067;39.548;-76.088;2023-03-01T11:59:41;14;14;
31330;PMS5003;34067;39.548;-76.088;2023-03-01T12:02:28;11;11;
31330;PMS5003;34067;39.548;-76.088;2023-03-01T12:05:28;14;14;
31330;PMS5003;34067;39.548;-76.088;2023-03-01T12:08:54;19;17;
31330;PMS5003;34067;39.548;-76.088;2023-03-01T12:11:36;15;14;
31330;PMS5003;34067;39.548;-76.088;2023-03-01T12:14:23;13;13;
31330;PMS5003;34067;39.548;-76.088;2023-03-01T12:17:14;17;14;
31330;PMS5003;34067;39.548;-76.088;2023-03-01T12:20:00;20;19;
31330;PMS5003;34067;39.548;-76.088;2023-03-01T12:22:41;17;16;
31330;PMS5003;34067;39.548;-76.088;2023-03-01T12:25:28;18;18;
31330;PMS5003;34067;39.548;-76.088;2023-03-01T12:28:06;18;16;
31330;PMS5003;34067;39.548;-76.088;2023-03-01T12:30:55;14;14;
31330;PMS5003;34067;39.548;-76.088;2023-03-01T12:33:42;15;14;
31330;PMS5003;34067;39.548;-76.088;2023-03-01T12:36:29;15;12;
31330;PMS5003;34067;39.548;-76.088;2023-03-01T12:39:14;12;12;
31330;PMS5003;34067;39.548;-76.088;2023-03-01T12:42:00;16;15;
31330;PMS5003;34067;39.548;-76.088;2023-03-01T12:44:39;18;15;
31330;PMS5003;34067;39.548;-76.088;2023-03-01T12:47:29;21;16;
31330;PMS5003;34067;39.548;-76.088;2023-03-01T12:50:11;18;17;
31330;PMS5003;34067;39.548;-76.088;2023-03-01T12:52:47;17;16;
31330;PMS5003;34067;39.548;-76.088;2023-03-01T12:55:21;17;15;
31330;PMS5003;34067;39.548;-76.088;2023-03-01T12:57:59;15;14;
31330;PMS5003;34067;39.548;-76.088;2023-03-01T13:00:37;17;16;
31330;PMS5003;34067;39.548;-76.088;2023-03-01T13:03:18;17;15;
31330;PMS5003;34067;39.548;-76.088;2023-03-01T13:05:59;17;17;
31330;PMS5003;34067;39.548;-76.088;2023-03-01T13:08:37;19;18;
31330;PMS5003;34067;39.548;-76.088;2023-03-01T13:11:14;26;24;
31330;PMS5003;34067;39.548;-76.088;2023-03-01T13:13:45;23;18;
31330;PMS5003;34067;39.548;-76.088;2023-03-01T13:16:22;24;20;
31330;PMS5003;34067;39.548;-76.088;2023-03-01T13:19:07;24;20;
31330;PMS5003;34067;39.548;-76.088;2023-03-01T13:21:39;24;24;
31330;PMS5003;34067;39.548;-76.088;2023-03-01T13:24:23;28;24;
31330;PMS5003;34067;39.548;-76.088;2023-03-01T13:27:10;25;22;
31330;PMS5003;34067;39.548;-76.088;2023-03-01T13:29:54;25;21;
31330;PMS5003;34067;39.548;-76.088;2023-03-01T13:32:24;31;29;
31330;PMS5003;34067;39.548;-76.088;2023-03-01T13:34:54;23;21;
31330;PMS5003;34067;39.548;-76.088;2023-03-01T13:37:25;25;22;
31330;PMS5003;34067;39.548;-76.088;2023-03-01T13:39:54;24;22;
31330;PMS5003;34067;39.548;-76.088;2023-03-01T13:42:30;274;273;
31330;PMS5003;34067;39.548;-76.088;2023-03-01T13:45:00;455;449;
31330;PMS5003;34067;39.548;-76.088;2023-03-01T13:47:29;454;452;
31330;PMS5003;34067;39.548;-76.088;2023-03-01T13:50:01;439;434;
31330;PMS5003;34067;39.548;-76.088;2023-03-01T13:52:34;401;400;
31330;PMS5003;34067;39.548;-76.088;2023-03-01T13:55:16;38;33;
31330;PMS5003;34067;39.548;-76.088;2023-03-01T13:57:48;28;25;
31330;PMS5003;34067;39.548;-76.088;2023-03-01T14:00:29;26;23;
31330;PMS5003;34067;39.548;-76.088;2023-03-01T14:03:02;36;28;
31330;PMS5003;34067;39.548;-76.088;2023-03-01T14:05:40;29;26;
31330;PMS5003;34067;39.548;-76.088;2023-03-01T14:08:18;39;36;
31330;PMS5003;34067;39.548;-76.088;2023-03-01T14:10:53;25;24;
31330;PMS5003;34067;39.548;-76.088;2023-03-01T14:13:33;27;25;
31330;PMS5003;34067;39.548;-76.088;2023-03-01T14:16:18;27;25;
31330;PMS5003;34067;39.548;-76.088;2023-03-01T14:19:01;36;36;
31330;PMS5003;34067;39.548;-76.088;2023-03-01T14:21:35;33;29;
31330;PMS5003;34067;39.548;-76.088;2023-03-01T14:24:03;27;24;
31330;PMS5003;34067;39.548;-76.088;2023-03-01T14:26:32;26;25;
31330;PMS5003;34067;39.548;-76.088;2023-03-01T14:29:02;22;21;
31330;PMS5003;34067;39.548;-76.088;2023-03-01T14:31:34;25;23;
31330;PMS5003;34067;39.548;-76.088;2023-03-01T14:34:05;27;26;
31330;PMS5003;34067;39.548;-76.088;2023-03-01T14:36:33;26;25;
31330;PMS5003;34067;39.548;-76.088;2023-03-01T14:39:15;25;23;
31330;PMS5003;34067;39.548;-76.088;2023-03-01T14:41:46;26;22;
31330;PMS5003;34067;39.548;-76.088;2023-03-01T14:44:15;34;29;
31330;PMS5003;34067;39.548;-76.088;2023-03-01T14:46:47;25;24;
31330;PMS5003;34067;39.548;-76.088;2023-03-01T14:49:21;25;19;
31330;PMS5003;34067;39.548;-76.088;2023-03-01T14:51:53;28;25;
31330;PMS5003;34067;39.548;-76.088;2023-03-01T14:54:24;20;20;
31330;PMS5003;34067;39.548;-76.088;2023-03-01T14:56:57;20;17;
31330;PMS5003;34067;39.548;-76.088;2023-03-01T14:59:27;24;20;
31330;PMS5003;34067;39.548;-76.088;2023-03-01T15:01:57;26;23;
31330;PMS5003;34067;39.548;-76.088;2023-03-01T15:04:25;22;21;
31330;PMS5003;34067;39.548;-76.088;2023-03-01T15:06:55;21;19;
31330;PMS5003;34067;39.548;-76.088;2023-03-01T15:09:25;24;22;
31330;PMS5003;34067;39.548;-76.088;2023-03-01T15:11:53;22;21;
31330;PMS5003;34067;39.548;-76.088;2023-03-01T15:14:29;22;20;
31330;PMS5003;34067;39.548;-76.088;2023-03-01T15:17:21;19;17;
31330;PMS5003;34067;39.548;-76.088;2023-03-01T15:19:57;21;18;
31330;PMS5003;34067;39.548;-76.088;2023-03-01T15:22:27;28;26;
31330;PMS5003;34067;39.548;-76.088;2023-03-01T15:24:55;20;18;
31330;PMS5003;34067;39.548;-76.088;2023-03-01T15:27:24;21;18;
31330;PMS5003;34067;39.548;-76.088;2023-03-01T15:29:54;17;17;
31330;PMS5003;34067;39.548;-76.088;2023-03-01T15:32:27;23;21;
31330;PMS5003;34067;39.548;-76.088;2023-03-01T15:34:57;21;20;
31330;PMS5003;34067;39.548;-76.088;2023-03-01T15:37:37;23;18;
31330;PMS5003;34067;39.548;-76.088;2023-03-01T15:40:18;24;20;
31330;PMS5003;34067;39.548;-76.088;2023-03-01T15:42:48;28;27;
31330;PMS5003;34067;39.548;-76.088;2023-03-01T15:45:21;22;20;
31330;PMS5003;34067;39.548;-76.088;2023-03-01T15:47:51;23;20;
31330;PMS5003;34067;39.548;-76.088;2023-03-01T15:50:22;22;21;
31330;PMS5003;34067;39.548;-76.088;2023-03-01T15:52:53;22;22;
31330;PMS5003;34067;39.548;-76.088;2023-03-01T15:55:24;23;20;
31330;PMS5003;34067;39.548;-76.088;2023-03-01T15:57:59;18;16;
31330;PMS5003;34067;39.548;-76.088;2023-03-01T16:00:30;24;21;
31330;PMS5003;34067;39.548;-76.088;2023-03-01T16:02:58;19;18;
31330;PMS5003;34067;39.548;-76.088;2023-03-01T16:05:27;24;19;
31330;PMS5003;34067;39.548;-76.088;2023-03-01T16:07:55;18;18;
31330;PMS5003;34067;39.548;-76.088;2023-03-01T16:10:24;19;17;
31330;PMS5003;34067;39.548;-76.088;2023-03-01T16:12:52;20;16;
31330;PMS5003;34067;39.548;-76.088;2023-03-01T16:15:22;17;16;
31330;PMS5003;34067;39.548;-76.088;2023-03-01T16:17:52;23;20;